Time;durP1;ratioP1;P1;durP2;ratioP2;P2;SDS_P1;SDS_P2;PMS_P1;PMS_P2;Temp;Humidity;BMP_temperature;BMP_pressure;BME280_temperature;BME280_humidity;BME280_pressure;Samples;Min_cycle;Max_cycle;Signal;HPM_P1;HPM_P2
2021/11/19 00:02:05;;;;;;;14.40;6.37;;;;;;;;;;4391485;32;20080;-71
2021/11/19 00:04:32;;;;;;;;;;;;;;;;;;4392099;32;20019;-71
2021/11/19 00:06:58;;;;;;;22.10;10.98;;;;;;;;;;4391489;32;19949;-71
2021/11/19 00:12:07;;;;;;;34.22;21.55;;;;;;;;;;4390277;32;20330;-71
2021/11/19 00:14:33;;;;;;;;;;;;;;;;;;4391713;32;20030;-71
2021/11/19 00:17:08;;;;;;;39.85;20.30;;;;;;;;;;4391333;32;19984;-71
2021/11/19 00:19:35;;;;;;;35.30;21.83;;;;;;;;;;4404315;32;20026;-70
2021/11/19 00:22:00;;;;;;;34.70;19.95;;;;;;;;;;4406756;32;20400;-71
2021/11/19 00:24:28;;;;;;;;;;;;;;;;;;4392798;32;20022;-71
2021/11/19 00:26:53;;;;;;;;;;;;;;;;;;4392406;32;19971;-71
2021/11/19 00:29:19;;;;;;;28.87;13.90;;;;;;;;;;4407226;32;19953;-70
2021/11/19 00:31:44;;;;;;;;;;;;;;;;;;4405886;32;20022;-71
2021/11/19 00:34:10;;;;;;;23.02;13.43;;;;;;;;;;4405645;32;19945;-71
2021/11/19 00:36:39;;;;;;;23.92;13.38;;;;;;;;;;4405756;32;20022;-71
2021/11/19 00:39:07;;;;;;;18.67;10.73;;;;;;;;;;4414565;32;20099;-71
2021/11/19 00:41:32;;;;;;;18.35;11.82;;;;;;;;;;4421247;32;20064;-71
2021/11/19 00:44:01;;;;;;;;;;;;;;;;;;4419218;32;20128;-71
2021/11/19 00:46:57;;;;;;;19.00;10.85;;;;;;;;;;4405653;32;19975;-70
2021/11/19 00:49:26;;;;;;;21.83;12.30;;;;;;;;;;4390075;32;20031;-70
2021/11/19 00:51:54;;;;;;;23.10;13.00;;;;;;;;;;4376800;32;20072;-71
2021/11/19 00:54:22;;;;;;;19.02;12.77;;;;;;;;;;4390696;32;20039;-70
2021/11/19 00:56:59;;;;;;;29.30;13.55;;;;;;;;;;4390634;32;20066;-71
2021/11/19 00:59:27;;;;;;;34.33;16.02;;;;;;;;;;4391697;32;20027;-71
2021/11/19 01:02:00;;;;;;;32.03;16.25;;;;;;;;;;4378168;32;20045;-71
2021/11/19 01:04:25;;;;;;;32.80;18.85;;;;;;;;;;4406674;32;20352;-70
2021/11/19 01:06:50;;;;;;;;;;;;;;;;;;4406599;32;20030;-71
2021/11/19 01:09:18;;;;;;;28.60;17.42;;;;;;;;;;4406709;32;19934;-70
2021/11/19 01:11:43;;;;;;;32.50;17.83;;;;;;;;;;4405816;32;20069;-71
2021/11/19 01:14:09;;;;;;;;;;;;;;;;;;4405774;32;20049;-70
2021/11/19 01:16:44;;;;;;;30.33;18.15;;;;;;;;;;4406206;32;19949;-71
2021/11/19 01:19:12;;;;;;;31.60;18.48;;;;;;;;;;4402441;32;20054;-71
2021/11/19 01:21:39;;;;;;;33.17;18.50;;;;;;;;;;4405689;32;20052;-71
2021/11/19 01:24:05;;;;;;;33.42;19.27;;;;;;;;;;4405951;32;20083;-71
2021/11/19 01:26:30;;;;;;;;;;;;;;;;;;4405785;32;20421;-70
2021/11/19 01:29:10;;;;;;;;;;;;;;;;;;;;;
2021/11/19 01:31:48;;;;;;;29.08;18.73;;;;;;;;;;4402988;32;20069;-71
2021/11/19 01:34:13;;;;;;;36.05;20.30;;;;;;;;;;4390619;32;20039;-71
2021/11/19 01:36:39;;;;;;;;;;;;;;;;;;4390776;32;20065;-70
2021/11/19 01:39:05;;;;;;;35.72;20.25;;;;;;;;;;4394184;32;19991;-71
2021/11/19 01:41:36;;;;;;;32.67;19.87;;;;;;;;;;4420194;32;20141;-71
2021/11/19 01:44:09;;;;;;;28.80;17.60;;;;;;;;;;4417431;32;20034;-71
2021/11/19 01:46:34;;;;;;;30.60;17.00;;;;;;;;;;4393771;32;20027;-71
2021/11/19 01:48:59;;;;;;;;;;;;;;;;;;4406778;32;20061;-71
2021/11/19 01:51:27;;;;;;;32.03;16.23;;;;;;;;;;4409472;32;20256;-70
2021/11/19 01:54:13;;;;;;;32.03;18.08;;;;;;;;;;4407827;32;20064;-70
2021/11/19 01:57:01;;;;;;;23.92;17.08;;;;;;;;;;4408680;32;20023;-71
2021/11/19 01:59:41;;;;;;;30.52;17.73;;;;;;;;;;4394675;32;20019;-70
2021/11/19 02:02:11;;;;;;;27.87;17.02;;;;;;;;;;4394847;32;20053;-70
2021/11/19 02:04:46;;;;;;;24.27;14.87;;;;;;;;;;4408377;32;20034;-70
2021/11/19 02:07:20;;;;;;;26.83;16.37;;;;;;;;;;4407942;32;20038;-70
2021/11/19 02:09:59;;;;;;;26.77;14.70;;;;;;;;;;4408588;32;20084;-70
2021/11/19 02:12:44;;;;;;;26.15;16.10;;;;;;;;;;4408435;32;20095;-70
2021/11/19 02:15:18;;;;;;;32.35;14.77;;;;;;;;;;4408605;32;20088;-70
2021/11/19 02:17:46;;;;;;;27.95;15.02;;;;;;;;;;4407950;32;20088;-70
2021/11/19 02:20:27;;;;;;;26.77;16.42;;;;;;;;;;4408245;32;20039;-70
2021/11/19 02:29:24;;;;;;;26.83;16.42;;;;;;;;;;4347645;32;20093;-70
2021/11/19 02:31:52;;;;;;;24.77;16.27;;;;;;;;;;4345849;33;20082;-70
2021/11/19 02:34:18;;;;;;;28.45;16.15;;;;;;;;;;4345639;33;20040;-70
2021/11/19 02:36:44;;;;;;;;;;;;;;;;;;4371114;32;20034;-70
2021/11/19 02:42:11;;;;;;;30.65;17.10;;;;;;;;;;4396429;32;20038;-70
2021/11/19 02:44:38;;;;;;;33.13;17.12;;;;;;;;;;4408558;32;20034;-70
2021/11/19 02:47:08;;;;;;;29.08;17.52;;;;;;;;;;4407650;32;20030;-70
2021/11/19 02:49:41;;;;;;;27.33;17.65;;;;;;;;;;4407981;32;20376;-70
2021/11/19 02:52:09;;;;;;;33.10;18.45;;;;;;;;;;4407898;32;20060;-71
2021/11/19 02:54:43;;;;;;;29.15;18.75;;;;;;;;;;4393442;32;20076;-70
2021/11/19 02:57:09;;;;;;;37.47;20.67;;;;;;;;;;4408302;32;20401;-70
2021/11/19 02:59:34;;;;;;;;;;;;;;;;;;4407958;32;20404;-70
2021/11/19 03:02:05;;;;;;;32.03;22.00;;;;;;;;;;4407535;32;19933;-71
2021/11/19 03:04:35;;;;;;;38.97;20.27;;;;;;;;;;4407077;32;20030;-71
2021/11/19 03:10:08;;;;;;;33.83;20.62;;;;;;;;;;4316551;33;20114;-70
2021/11/19 03:12:33;;;;;;;;;;;;;;;;;;4399729;32;20424;-71
2021/11/19 03:15:00;;;;;;;44.38;21.00;;;;;;;;;;4407604;32;20019;-70
2021/11/19 03:17:25;;;;;;;30.77;20.48;;;;;;;;;;4407036;32;20038;-71
2021/11/19 03:19:51;;;;;;;;;;;;;;;;;;4393889;32;20076;-70
2021/11/19 03:22:27;;;;;;;;;;;;;;;;;;;;;
2021/11/19 03:24:59;;;;;;;34.35;21.10;;;;;;;;;;4407274;32;20153;-70
2021/11/19 03:27:28;;;;;;;28.30;19.15;;;;;;;;;;4406560;32;20091;-70
2021/11/19 03:30:20;;;;;;;40.08;22.50;;;;;;;;;;4407365;32;20396;-70
2021/11/19 03:32:49;;;;;;;33.45;20.85;;;;;;;;;;4387356;32;20364;-70
2021/11/19 03:35:42;;;;;;;35.42;20.73;;;;;;;;;;4407249;32;20094;-70
2021/11/19 03:38:17;;;;;;;38.17;21.37;;;;;;;;;;4407357;32;20060;-70
2021/11/19 03:40:47;;;;;;;36.15;19.65;;;;;;;;;;4393357;32;20490;-70
2021/11/19 03:43:20;;;;;;;29.95;18.50;;;;;;;;;;4407463;32;20072;-70
2021/11/19 03:45:48;;;;;;;36.03;19.25;;;;;;;;;;4407328;32;20022;-70
2021/11/19 03:48:14;;;;;;;32.75;18.45;;;;;;;;;;4406401;32;20503;-70
2021/11/19 03:50:40;;;;;;;;;;;;;;;;;;4392962;32;20066;-70
2021/11/19 03:53:06;;;;;;;36.63;19.02;;;;;;;;;;4407009;32;19941;-70
2021/11/19 03:55:31;;;;;;;;;;;;;;;;;;4395820;32;20405;-70
2021/11/19 03:57:57;;;;;;;38.45;18.67;;;;;;;;;;4392820;32;19974;-70
2021/11/19 04:00:28;;;;;;;;;;;;;;;;;;4406934;32;20035;-70
2021/11/19 04:02:55;;;;;;;28.25;17.77;;;;;;;;;;4406640;32;19937;-70
2021/11/19 04:05:21;;;;;;;29.83;16.73;;;;;;;;;;4406761;32;20071;-70
2021/11/19 04:07:55;;;;;;;36.35;17.37;;;;;;;;;;4407038;32;20104;-71
2021/11/19 04:10:32;;;;;;;;;;;;;;;;;;;;;
2021/11/19 04:12:58;;;;;;;30.77;17.17;;;;;;;;;;4365693;32;20046;-70
2021/11/19 04:15:24;;;;;;;;;;;;;;;;;;4376159;32;20065;-70
2021/11/19 04:20:49;;;;;;;;;;;;;;;;;;;;;
2021/11/19 04:23:17;;;;;;;23.73;15.27;;;;;;;;;;4375521;32;20062;-70
2021/11/19 04:25:43;;;;;;;25.88;15.90;;;;;;;;;;4376235;32;20051;-70
2021/11/19 04:28:21;;;;;;;;;;;;;;;;;;;;;
2021/11/19 04:30:48;;;;;;;32.53;15.75;;;;;;;;;;4374240;32;20342;-70
2021/11/19 04:33:21;;;;;;;31.50;15.40;;;;;;;;;;4375915;32;20058;-71
2021/11/19 04:35:47;;;;;;;30.92;15.00;;;;;;;;;;4376397;32;20038;-70
2021/11/19 04:38:23;;;;;;;29.05;15.05;;;;;;;;;;4375689;32;20078;-70
2021/11/19 04:40:56;;;;;;;23.87;14.13;;;;;;;;;;4364279;32;20096;-70
2021/11/19 04:43:23;;;;;;;33.83;15.80;;;;;;;;;;4376260;32;20031;-70
2021/11/19 04:45:49;;;;;;;37.75;16.20;;;;;;;;;;4362790;32;20069;-70
2021/11/19 04:48:14;;;;;;;;;;;;;;;;;;4376272;32;20090;-70
2021/11/19 04:50:44;;;;;;;30.40;14.63;;;;;;;;;;4375843;32;19938;-71
2021/11/19 04:53:13;;;;;;;26.92;15.75;;;;;;;;;;4362370;32;20145;-70
2021/11/19 04:55:39;;;;;;;27.45;15.70;;;;;;;;;;4375540;32;20062;-70
2021/11/19 04:58:06;;;;;;;;;;;;;;;;;;4376396;32;20376;-70
2021/11/19 05:00:37;;;;;;;32.15;16.00;;;;;;;;;;4375692;32;19990;-70
2021/11/19 05:03:04;;;;;;;26.08;15.75;;;;;;;;;;4376013;32;20035;-70
2021/11/19 05:05:30;;;;;;;27.05;16.12;;;;;;;;;;4375870;32;20074;-69
2021/11/19 05:07:55;;;;;;;;;;;;;;;;;;4376128;32;20061;-70
2021/11/19 05:10:30;;;;;;;;;;;;;;;;;;;;;
2021/11/19 05:12:59;;;;;;;26.20;15.40;;;;;;;;;;4382178;32;20073;-70
2021/11/19 05:18:47;;;;;;;24.90;13.57;;;;;;;;;;4390642;32;20045;-69
2021/11/19 05:24:33;;;;;;;29.52;14.77;;;;;;;;;;4388349;32;20069;-70
2021/11/19 05:26:58;;;;;;;23.50;12.82;;;;;;;;;;4390754;32;20041;-70
2021/11/19 05:29:24;;;;;;;;;;;;;;;;;;4391001;32;20074;-70
2021/11/19 05:31:52;;;;;;;24.60;12.73;;;;;;;;;;4390497;32;20009;-70
2021/11/19 05:37:23;;;;;;;24.42;12.85;;;;;;;;;;4406042;32;20052;-70
2021/11/19 05:39:48;;;;;;;24.63;13.35;;;;;;;;;;4404995;32;20046;-70
2021/11/19 05:42:14;;;;;;;;;;;;;;;;;;4405878;32;20049;-71
2021/11/19 05:44:48;;;;;;;32.08;13.55;;;;;;;;;;4391391;32;19969;-70
2021/11/19 05:47:18;;;;;;;24.17;12.77;;;;;;;;;;4406073;32;20139;-70
2021/11/19 05:49:43;;;;;;;25.67;12.63;;;;;;;;;;4405029;32;20072;-69
2021/11/19 05:52:11;;;;;;;;;;;;;;;;;;4406336;32;20399;-70
2021/11/19 05:54:36;;;;;;;27.77;12.55;;;;;;;;;;4391526;32;19940;-70
2021/11/19 05:57:09;;;;;;;23.55;12.35;;;;;;;;;;4405436;32;20035;-70
2021/11/19 05:59:35;;;;;;;26.12;11.88;;;;;;;;;;4405391;32;20043;-70
2021/11/19 06:02:05;;;;;;;23.58;12.05;;;;;;;;;;4405461;32;20018;-70
2021/11/19 06:04:33;;;;;;;27.83;11.75;;;;;;;;;;4405741;32;20110;-70
2021/11/19 06:06:58;;;;;;;19.48;10.32;;;;;;;;;;4405120;32;20425;-70
2021/11/19 06:09:28;;;;;;;;;;;;;;;;;;4405686;32;20463;-71
2021/11/19 06:11:56;;;;;;;21.20;10.80;;;;;;;;;;4391499;32;19938;-70
2021/11/19 06:14:28;;;;;;;28.40;11.18;;;;;;;;;;4404807;32;20064;-71
2021/11/19 06:16:56;;;;;;;23.08;10.40;;;;;;;;;;4404822;32;20098;-71
2021/11/19 06:19:23;;;;;;;22.23;11.10;;;;;;;;;;4405163;32;20042;-71
2021/11/19 06:22:01;;;;;;;22.85;10.95;;;;;;;;;;4405011;32;20118;-71
2021/11/19 06:24:29;;;;;;;21.95;9.63;;;;;;;;;;4391853;32;20030;-71
2021/11/19 06:26:54;;;;;;;16.52;9.30;;;;;;;;;;4405382;32;20076;-71
2021/11/19 06:29:19;;;;;;;;;;;;;;;;;;4405468;32;20035;-71
2021/11/19 06:31:59;;;;;;;;;;;;;;;;;;;;;
2021/11/19 06:34:43;;;;;;;22.25;10.18;;;;;;;;;;4404676;32;20038;-70
2021/11/19 06:37:09;;;;;;;19.98;8.95;;;;;;;;;;4407320;32;20069;-71
2021/11/19 06:39:38;;;;;;;;;;;;;;;;;;4408854;32;20026;-70
2021/11/19 06:42:04;;;;;;;28.87;11.10;;;;;;;;;;4407932;32;20287;-69
2021/11/19 06:44:29;;;;;;;;;;;;;;;;;;4407906;32;20071;-70
2021/11/19 06:46:55;;;;;;;27.00;9.70;;;;;;;;;;4407023;32;20301;-70
2021/11/19 06:49:20;;;;;;;;;;;;;;;;;;4407159;32;20108;-70
2021/11/19 06:51:48;;;;;;;20.90;9.23;;;;;;;;;;4406714;32;19933;-70
2021/11/19 06:54:13;;;;;;;20.65;9.25;;;;;;;;;;4406652;32;20078;-72
2021/11/19 06:56:39;;;;;;;;;;;;;;;;;;4406742;32;20073;-68
2021/11/19 06:59:05;;;;;;;20.58;9.85;;;;;;;;;;4408065;32;19944;-70
2021/11/19 07:01:30;;;;;;;;;;;;;;;;;;4408352;32;20030;-70
2021/11/19 07:03:55;;;;;;;26.35;10.00;;;;;;;;;;4406719;32;19956;-70
2021/11/19 07:06:20;;;;;;;27.90;11.27;;;;;;;;;;4407244;32;20061;-70
2021/11/19 07:08:46;;;;;;;;;;;;;;;;;;4393295;32;20509;-71
2021/11/19 07:11:13;;;;;;;19.83;10.45;;;;;;;;;;4393269;32;19974;-69
2021/11/19 07:13:38;;;;;;;23.08;10.13;;;;;;;;;;4408182;32;20203;-70
2021/11/19 07:16:03;;;;;;;;;;;;;;;;;;4407297;32;20371;-70
2021/11/19 07:18:29;;;;;;;18.65;9.52;;;;;;;;;;4407451;32;19941;-71
2021/11/19 07:20:54;;;;;;;;;;;;;;;;;;4408870;32;20126;-71
2021/11/19 07:23:20;;;;;;;19.12;8.63;;;;;;;;;;4407569;32;19937;-70
2021/11/19 07:25:48;;;;;;;;;;;;;;;;;;4406513;32;20368;-70
2021/11/19 07:28:19;;;;;;;22.08;8.95;;;;;;;;;;4405985;32;20244;-71
2021/11/19 07:30:47;;;;;;;25.62;9.45;;;;;;;;;;4407203;32;20038;-71
2021/11/19 07:33:14;;;;;;;18.85;9.50;;;;;;;;;;4415642;32;20428;-70
2021/11/19 07:35:41;;;;;;;18.92;8.55;;;;;;;;;;4406515;32;20054;-69
2021/11/19 07:38:07;;;;;;;18.15;8.52;;;;;;;;;;4405917;32;20469;-70
2021/11/19 07:40:32;;;;;;;;;;;;;;;;;;4407131;32;20034;-69
2021/11/19 07:42:57;;;;;;;21.00;7.47;;;;;;;;;;4405901;32;19948;-69
2021/11/19 07:45:24;;;;;;;28.62;8.88;;;;;;;;;;4407228;32;20539;-69
2021/11/19 07:47:50;;;;;;;21.12;7.50;;;;;;;;;;4406767;32;20466;-68
2021/11/19 07:50:15;;;;;;;;;;;;;;;;;;4402030;32;20084;-70
2021/11/19 07:52:41;;;;;;;14.85;7.60;;;;;;;;;;4406416;32;19942;-70
2021/11/19 07:55:06;;;;;;;;;;;;;;;;;;4403194;32;20184;-70
2021/11/19 07:57:31;;;;;;;24.15;7.85;;;;;;;;;;4405578;32;19933;-68
2021/11/19 07:59:57;;;;;;;;;;;;;;;;;;4405907;32;20034;-67
2021/11/19 08:02:22;;;;;;;23.50;7.22;;;;;;;;;;4392091;32;19945;-69
2021/11/19 08:04:47;;;;;;;17.77;7.72;;;;;;;;;;4401406;32;20039;-71
2021/11/19 08:07:13;;;;;;;20.05;7.70;;;;;;;;;;4403754;32;20054;-67
2021/11/19 08:09:38;;;;;;;;;;;;;;;;;;4407135;32;20370;-71
2021/11/19 08:12:04;;;;;;;21.45;7.37;;;;;;;;;;4405931;32;19976;-69
2021/11/19 08:14:29;;;;;;;16.62;6.85;;;;;;;;;;4404927;32;20082;-69
2021/11/19 08:16:57;;;;;;;;;;;;;;;;;;4406549;32;20026;-70
2021/11/19 08:19:25;;;;;;;17.58;8.00;;;;;;;;;;4406907;32;19941;-70
2021/11/19 08:21:51;;;;;;;14.07;7.85;;;;;;;;;;4405609;32;20100;-70
2021/11/19 08:24:16;;;;;;;;;;;;;;;;;;4407210;32;20053;-71
2021/11/19 08:26:44;;;;;;;12.93;7.22;;;;;;;;;;4392483;32;19933;-67
2021/11/19 08:29:12;;;;;;;13.45;6.87;;;;;;;;;;4402934;32;20089;-69
2021/11/19 08:31:38;;;;;;;18.90;7.15;;;;;;;;;;4388413;32;20412;-67
2021/11/19 08:34:03;;;;;;;;;;;;;;;;;;4405950;32;20101;-70
2021/11/19 08:36:29;;;;;;;17.80;7.40;;;;;;;;;;4398404;32;20393;-71
2021/11/19 08:38:55;;;;;;;17.67;6.62;;;;;;;;;;4405236;32;20457;-70
2021/11/19 08:41:20;;;;;;;;;;;;;;;;;;4390906;32;20026;-70
2021/11/19 08:43:46;;;;;;;16.20;5.80;;;;;;;;;;4405877;32;19967;-70
2021/11/19 08:46:14;;;;;;;12.15;5.85;;;;;;;;;;4406437;32;20180;-70
2021/11/19 08:48:41;;;;;;;16.45;5.80;;;;;;;;;;4405108;32;20119;-69
2021/11/19 08:51:07;;;;;;;22.37;7.68;;;;;;;;;;4405292;32;20081;-70
2021/11/19 08:53:33;;;;;;;17.30;5.85;;;;;;;;;;4404203;32;20090;-70
2021/11/19 08:55:58;;;;;;;;;;;;;;;;;;4405786;32;20049;-71
2021/11/19 08:58:25;;;;;;;17.45;5.85;;;;;;;;;;4404925;32;19953;-70
2021/11/19 09:00:52;;;;;;;16.37;6.28;;;;;;;;;;4403973;32;20081;-70
2021/11/19 09:03:17;;;;;;;16.77;5.45;;;;;;;;;;4402471;32;20091;-70
2021/11/19 09:05:43;;;;;;;;;;;;;;;;;;4405590;32;20084;-70
2021/11/19 09:08:09;;;;;;;16.92;5.30;;;;;;;;;;4402752;32;19967;-71
2021/11/19 09:10:35;;;;;;;15.85;5.70;;;;;;;;;;4391909;32;20387;-71
2021/11/19 09:13:01;;;;;;;;;;;;;;;;;;4405414;32;20399;-70
2021/11/19 09:15:26;;;;;;;15.33;5.77;;;;;;;;;;4404814;32;19944;-71
2021/11/19 09:18:00;;;;;;;15.73;5.78;;;;;;;;;;4405281;32;20057;-70
2021/11/19 09:20:35;;;;;;;18.77;6.12;;;;;;;;;;4405262;32;20034;-70
2021/11/19 09:23:15;;;;;;;18.40;6.10;;;;;;;;;;4397489;32;20081;-71
2021/11/19 09:25:42;;;;;;;17.73;6.57;;;;;;;;;;4404924;32;20035;-72
2021/11/19 09:28:07;;;;;;;17.98;6.07;;;;;;;;;;4390279;32;20022;-70
2021/11/19 09:30:37;;;;;;;;;;;;;;;;;;4396512;32;20086;-70
2021/11/19 09:33:03;;;;;;;15.57;6.22;;;;;;;;;;4418732;32;19945;-69
2021/11/19 09:35:49;;;;;;;;;;;;;;;;;;4405252;32;20098;-70
2021/11/19 09:38:15;;;;;;;17.17;8.00;;;;;;;;;;4404254;32;19979;-70
2021/11/19 09:40:45;;;;;;;26.40;9.63;;;;;;;;;;4391443;32;20095;-70
2021/11/19 09:43:21;;;;;;;17.62;10.00;;;;;;;;;;4391522;32;20054;-71
2021/11/19 09:45:56;;;;;;;20.65;10.15;;;;;;;;;;4404894;32;20062;-71
2021/11/19 09:48:30;;;;;;;20.10;9.82;;;;;;;;;;4405401;32;20034;-71
2021/11/19 09:51:17;;;;;;;17.27;10.77;;;;;;;;;;4404929;32;20501;-70
2021/11/19 09:54:01;;;;;;;28.75;11.95;;;;;;;;;;4390386;32;20464;-70
2021/11/19 09:56:27;;;;;;;14.45;8.68;;;;;;;;;;4405394;32;20092;-70
2021/11/19 09:58:52;;;;;;;;;;;;;;;;;;4405566;32;20367;-69
2021/11/19 10:01:23;;;;;;;20.08;7.93;;;;;;;;;;4405112;32;19938;-71
2021/11/19 10:03:52;;;;;;;13.95;5.47;;;;;;;;;;4403164;32;20053;-71
2021/11/19 10:06:27;;;;;;;13.25;5.50;;;;;;;;;;4407473;32;20073;-72
2021/11/19 10:08:58;;;;;;;10.23;4.60;;;;;;;;;;4417359;32;20403;-71
2021/11/19 10:11:38;;;;;;;13.40;5.68;;;;;;;;;;4409053;32;20091;-71
2021/11/19 10:14:36;;;;;;;12.88;5.60;;;;;;;;;;4422779;32;20045;-69
2021/11/19 10:17:15;;;;;;;12.35;4.20;;;;;;;;;;4368393;32;20062;-71
2021/11/19 10:19:54;;;;;;;12.05;4.68;;;;;;;;;;4393109;32;20026;-71
2021/11/19 10:22:19;;;;;;;13.88;4.62;;;;;;;;;;4406283;32;20085;-71
2021/11/19 10:24:44;;;;;;;;;;;;;;;;;;4399271;32;20046;-71
2021/11/19 10:27:17;;;;;;;13.15;5.10;;;;;;;;;;4408639;32;19991;-71
2021/11/19 10:29:52;;;;;;;13.45;4.95;;;;;;;;;;4407957;32;20026;-69
2021/11/19 10:32:20;;;;;;;11.00;4.97;;;;;;;;;;4407349;32;20031;-71
2021/11/19 10:35:06;;;;;;;12.30;4.93;;;;;;;;;;4407540;32;20085;-70
2021/11/19 10:37:54;;;;;;;15.17;4.30;;;;;;;;;;4408675;32;20025;-70
2021/11/19 10:40:28;;;;;;;14.55;4.57;;;;;;;;;;4407564;32;20114;-70
2021/11/19 10:42:59;;;;;;;12.98;4.10;;;;;;;;;;4400181;32;20429;-70
2021/11/19 10:45:42;;;;;;;12.40;4.32;;;;;;;;;;4419988;32;20052;-71
2021/11/19 10:48:10;;;;;;;12.32;4.50;;;;;;;;;;4414221;32;20408;-71
2021/11/19 10:51:09;;;;;;;8.35;3.78;;;;;;;;;;4413128;32;20039;-71
2021/11/19 10:53:50;;;;;;;15.23;4.57;;;;;;;;;;4393109;32;20220;-70
2021/11/19 10:56:21;;;;;;;12.40;4.82;;;;;;;;;;4406426;32;20030;-70
2021/11/19 11:02:03;;;;;;;16.85;6.80;;;;;;;;;;4407155;32;20426;-70
2021/11/19 11:04:38;;;;;;;16.85;7.60;;;;;;;;;;4392897;32;20374;-70
2021/11/19 11:07:12;;;;;;;10.77;5.85;;;;;;;;;;4395844;32;20065;-71
2021/11/19 11:09:43;;;;;;;13.62;7.18;;;;;;;;;;4391277;32;20030;-73
2021/11/19 11:12:11;;;;;;;14.52;5.45;;;;;;;;;;4421819;32;20042;-72
2021/11/19 11:14:38;;;;;;;10.82;3.87;;;;;;;;;;4421466;32;20166;-72
2021/11/19 11:17:22;;;;;;;10.13;3.58;;;;;;;;;;4421351;32;20040;-71
2021/11/19 11:19:48;;;;;;;9.93;3.22;;;;;;;;;;4409080;32;20052;-71
2021/11/19 11:22:15;;;;;;;10.40;2.55;;;;;;;;;;4405965;32;20038;-70
2021/11/19 11:24:46;;;;;;;5.05;2.50;;;;;;;;;;4397504;32;20095;-70
2021/11/19 11:27:11;;;;;;;11.80;3.10;;;;;;;;;;4391326;32;20019;-70
2021/11/19 11:29:45;;;;;;;11.48;2.83;;;;;;;;;;4390820;32;20018;-71
2021/11/19 11:32:19;;;;;;;7.10;3.08;;;;;;;;;;4400325;32;20038;-71
2021/11/19 11:34:44;;;;;;;7.03;3.33;;;;;;;;;;4401801;32;20104;-66
2021/11/19 11:37:10;;;;;;;;;;;;;;;;;;4408013;32;20438;-69
2021/11/19 11:39:42;;;;;;;10.63;2.97;;;;;;;;;;4392309;32;19952;-71
2021/11/19 11:42:14;;;;;;;12.13;4.15;;;;;;;;;;4399098;32;20156;-71
2021/11/19 11:44:47;;;;;;;11.27;2.40;;;;;;;;;;4404834;32;20075;-72
2021/11/19 11:47:18;;;;;;;12.43;3.28;;;;;;;;;;4409442;32;20018;-66
2021/11/19 11:49:58;;;;;;;7.62;2.35;;;;;;;;;;4406685;32;20023;-70
2021/11/19 11:52:32;;;;;;;9.27;2.53;;;;;;;;;;4396078;32;20073;-70
2021/11/19 11:55:22;;;;;;;7.37;2.40;;;;;;;;;;4401757;32;20049;-70
2021/11/19 11:57:56;;;;;;;10.38;3.10;;;;;;;;;;4390888;32;20052;-70
2021/11/19 12:00:33;;;;;;;8.50;2.65;;;;;;;;;;4401321;32;20080;-71
2021/11/19 12:03:20;;;;;;;12.57;2.95;;;;;;;;;;4400314;32;20038;-70
2021/11/19 12:06:05;;;;;;;11.43;2.30;;;;;;;;;;4405935;32;20023;-71
2021/11/19 12:11:52;;;;;;;5.68;2.00;;;;;;;;;;4404631;32;20080;-71
2021/11/19 12:14:22;;;;;;;7.53;2.60;;;;;;;;;;4404893;32;20038;-70
2021/11/19 12:17:05;;;;;;;;;;;;;;;;;;;;;
2021/11/19 12:19:34;;;;;;;7.40;2.53;;;;;;;;;;4406918;32;20029;-70
2021/11/19 12:22:03;;;;;;;10.07;2.55;;;;;;;;;;4406207;32;20054;-70
2021/11/19 12:24:54;;;;;;;14.25;3.28;;;;;;;;;;4407835;32;20395;-70
2021/11/19 12:27:26;;;;;;;9.77;2.10;;;;;;;;;;4402938;32;20516;-70
2021/11/19 12:29:51;;;;;;;8.27;2.45;;;;;;;;;;4405662;32;20029;-70
2021/11/19 12:32:27;;;;;;;21.60;3.90;;;;;;;;;;4391966;32;20068;-70
2021/11/19 12:35:00;;;;;;;6.65;2.08;;;;;;;;;;4392972;32;20026;-70
2021/11/19 12:37:33;;;;;;;6.93;1.95;;;;;;;;;;4406678;32;20086;-72
2021/11/19 12:39:58;;;;;;;7.72;2.40;;;;;;;;;;4392256;32;20139;-71
2021/11/19 12:42:33;;;;;;;7.45;2.00;;;;;;;;;;4406003;32;20022;-71
2021/11/19 12:45:27;;;;;;;8.68;2.28;;;;;;;;;;4405893;32;20087;-71
2021/11/19 12:48:10;;;;;;;12.57;3.45;;;;;;;;;;4403347;32;20446;-71
2021/11/19 12:50:55;;;;;;;6.53;2.08;;;;;;;;;;4405327;32;20125;-71
2021/11/19 12:53:39;;;;;;;8.88;2.20;;;;;;;;;;4406254;32;20092;-70
2021/11/19 12:59:10;;;;;;;16.05;2.62;;;;;;;;;;4406154;32;20033;-72
2021/11/19 13:02:23;;;;;;;13.48;3.70;;;;;;;;;;4406337;32;20056;-71
2021/11/19 13:04:32;;;;;;;10.98;2.55;;;;;;;;;;4402685;32;20030;-70
2021/11/19 13:07:35;;;;;;;12.10;2.33;;;;;;;;;;4405269;32;20348;-70
2021/11/19 13:10:06;;;;;;;13.40;2.62;;;;;;;;;;4406158;32;20050;-71
2021/11/19 13:16:00;;;;;;;12.73;2.42;;;;;;;;;;4343697;33;20365;-72
2021/11/19 13:18:33;;;;;;;15.93;2.47;;;;;;;;;;4396196;32;20363;-71
2021/11/19 13:21:09;;;;;;;16.00;2.20;;;;;;;;;;4404909;32;20019;-72
2021/11/19 13:23:37;;;;;;;;;;;;;;;;;;4405604;32;20039;-71
2021/11/19 13:26:14;;;;;;;11.65;2.55;;;;;;;;;;4404936;32;19938;-71
2021/11/19 13:28:52;;;;;;;7.37;2.17;;;;;;;;;;4406859;32;20018;-72
2021/11/19 13:31:20;;;;;;;10.68;2.30;;;;;;;;;;4405800;32;20045;-72
2021/11/19 13:37:40;;;;;;;7.65;2.20;;;;;;;;;;4328657;33;20087;-70
2021/11/19 13:40:24;;;;;;;8.18;2.35;;;;;;;;;;4292123;33;20043;-70
2021/11/19 13:42:50;;;;;;;7.07;2.00;;;;;;;;;;4328317;33;20478;-70
2021/11/19 13:45:30;;;;;;;4.35;1.80;;;;;;;;;;4375288;32;20061;-70
2021/11/19 13:48:14;;;;;;;4.72;1.75;;;;;;;;;;4393236;32;20023;-70
2021/11/19 13:51:02;;;;;;;7.70;1.83;;;;;;;;;;4393583;32;20134;-70
2021/11/19 13:53:39;;;;;;;16.27;2.20;;;;;;;;;;4392222;32;20023;-69
2021/11/19 13:56:11;;;;;;;5.03;2.15;;;;;;;;;;4391403;32;20034;-70
2021/11/19 13:58:46;;;;;;;12.90;3.22;;;;;;;;;;4393201;32;20018;-70
2021/11/19 14:01:25;;;;;;;7.18;2.20;;;;;;;;;;4393186;32;20407;-70
2021/11/19 14:03:54;;;;;;;10.55;2.83;;;;;;;;;;4393161;32;20019;-71
2021/11/19 14:06:38;;;;;;;13.88;2.83;;;;;;;;;;4391636;32;20459;-71
2021/11/19 14:09:38;;;;;;;11.73;2.47;;;;;;;;;;4393054;32;20452;-69
2021/11/19 14:12:04;;;;;;;6.50;2.30;;;;;;;;;;4393048;32;20069;-72
2021/11/19 14:14:36;;;;;;;7.50;2.20;;;;;;;;;;4404544;32;20485;-70
2021/11/19 14:17:04;;;;;;;9.43;2.67;;;;;;;;;;4407322;32;20412;-71
2021/11/19 14:21:56;;;;;;;9.40;2.33;;;;;;;;;;4407580;32;20050;-71
2021/11/19 14:22:22;;;;;;;8.50;2.40;;;;;;;;;;4405700;32;20019;-69
2021/11/19 14:24:56;;;;;;;5.93;1.92;;;;;;;;;;4408026;32;20023;-70
2021/11/19 14:27:30;;;;;;;8.25;2.60;;;;;;;;;;4408880;32;20045;-70
2021/11/19 14:33:03;;;;;;;11.00;2.80;;;;;;;;;;4407594;32;20067;-71
2021/11/19 14:35:43;;;;;;;11.23;3.17;;;;;;;;;;4407717;32;20022;-70
2021/11/19 14:38:18;;;;;;;11.32;2.70;;;;;;;;;;4407609;32;20027;-70
2021/11/19 14:43:58;;;;;;;;;;;;;;;;;;;;;
2021/11/19 14:46:27;;;;;;;5.47;2.65;;;;;;;;;;4385653;32;20023;-70
2021/11/19 14:49:22;;;;;;;5.20;2.17;;;;;;;;;;4397319;32;20030;-71
2021/11/19 14:51:52;;;;;;;7.07;2.30;;;;;;;;;;4396806;32;20026;-71
2021/11/19 14:54:18;;;;;;;16.92;2.87;;;;;;;;;;4408402;32;20034;-71
2021/11/19 14:56:55;;;;;;;9.32;2.75;;;;;;;;;;4393436;32;20109;-69
2021/11/19 14:59:26;;;;;;;10.35;2.40;;;;;;;;;;4407725;32;20396;-70
2021/11/19 15:01:51;;;;;;;7.37;2.28;;;;;;;;;;4408577;32;20026;-69
2021/11/19 15:04:17;;;;;;;;;;;;;;;;;;4403168;32;20407;-70
2021/11/19 15:06:46;;;;;;;10.43;3.30;;;;;;;;;;4395907;32;19952;-71
2021/11/19 15:09:15;;;;;;;6.22;2.60;;;;;;;;;;4391485;32;20027;-70
2021/11/19 15:11:59;;;;;;;13.05;3.50;;;;;;;;;;4391897;32;20054;-70
2021/11/19 15:17:43;;;;;;;6.57;2.95;;;;;;;;;;4316793;33;20043;-70
2021/11/19 15:20:09;;;;;;;10.52;3.22;;;;;;;;;;4316835;33;20047;-70
2021/11/19 15:22:34;;;;;;;;;;;;;;;;;;4377168;32;20023;-70
2021/11/19 15:25:08;;;;;;;10.00;3.15;;;;;;;;;;4391979;32;19968;-70
2021/11/19 15:27:34;;;;;;;6.20;2.80;;;;;;;;;;4402305;32;20084;-71
2021/11/19 15:29:59;;;;;;;;;;;;;;;;;;4405940;32;20128;-70
2021/11/19 15:32:25;;;;;;;9.43;3.33;;;;;;;;;;4393243;32;20304;-71
2021/11/19 15:34:57;;;;;;;7.35;2.65;;;;;;;;;;4406780;32;20057;-70
2021/11/19 15:37:43;;;;;;;10.13;3.40;;;;;;;;;;4406440;32;20031;-70
2021/11/19 15:40:15;;;;;;;9.35;3.42;;;;;;;;;;4405841;32;20030;-70
2021/11/19 15:42:41;;;;;;;9.30;3.20;;;;;;;;;;4406671;32;20079;-71
2021/11/19 15:45:06;;;;;;;;;;;;;;;;;;4397690;32;20371;-71
2021/11/19 15:47:31;;;;;;;13.77;5.00;;;;;;;;;;4391252;32;19996;-70
2021/11/19 15:49:57;;;;;;;;;;;;;;;;;;4391606;32;20310;-70
2021/11/19 15:52:28;;;;;;;11.50;4.53;;;;;;;;;;4406148;32;19951;-70
2021/11/19 15:55:01;;;;;;;11.75;4.93;;;;;;;;;;4394985;32;20064;-72
2021/11/19 15:58:05;;;;;;;9.25;4.32;;;;;;;;;;4401612;32;20052;-71
2021/11/19 16:03:37;;;;;;;10.25;4.72;;;;;;;;;;4315805;33;20034;-70
2021/11/19 16:06:03;;;;;;;;;;;;;;;;;;4383595;32;20383;-70
2021/11/19 16:08:43;;;;;;;13.25;4.93;;;;;;;;;;4396449;32;19937;-71
2021/11/19 16:11:27;;;;;;;14.73;5.87;;;;;;;;;;4390656;32;20026;-71
2021/11/19 16:13:56;;;;;;;15.98;5.12;;;;;;;;;;4393029;32;20034;-70
2021/11/19 16:16:28;;;;;;;9.88;4.22;;;;;;;;;;4406054;32;20018;-70